createdAt,value
2019-03-23T00:00:44.159Z,102.25
2019-03-23T00:03:18.643Z,101.82
2019-03-23T00:05:50.086Z,97.57
2019-03-23T00:08:22.694Z,96.40
2019-03-23T00:10:55.345Z,78.07
2019-03-23T00:13:29.050Z,69.67
2019-03-23T00:16:00.722Z,65.78
2019-03-23T00:18:32.395Z,63.40
2019-03-23T00:21:04.913Z,66.07
2019-03-23T00:23:37.337Z,64.12
2019-03-23T00:26:09.940Z,64.62
2019-03-23T00:28:42.850Z,66.40
2019-03-23T00:31:14.244Z,71.85
2019-03-23T00:33:46.944Z,82.35
2019-03-23T00:36:18.763Z,89.60
2019-03-23T00:38:51.656Z,86.82
2019-03-23T00:41:25.900Z,88.35
2019-03-23T00:43:57.472Z,85.17
2019-03-23T00:46:29.727Z,79.00
2019-03-23T00:49:05.363Z,75.45
2019-03-23T00:51:38.594Z,67.65
2019-03-23T00:54:13.096Z,72.37
2019-03-23T00:56:47.519Z,70.70
2019-03-23T00:59:22.616Z,79.93
2019-03-23T01:01:54.385Z,76.80
2019-03-23T01:04:39.737Z,75.87
2019-03-23T01:07:11.510Z,73.75
2019-03-23T01:09:44.277Z,68.87
2019-03-23T01:12:15.956Z,69.50
2019-03-23T01:14:50.535Z,73.47
2019-03-23T01:17:22.068Z,71.60
2019-03-23T01:19:54.080Z,64.00
2019-03-23T01:22:28.537Z,75.57
2019-03-23T01:25:00.908Z,70.60
2019-03-23T01:27:33.631Z,67.12
2019-03-23T01:30:06.566Z,73.12
2019-03-23T01:32:39.142Z,70.12
2019-03-23T01:35:11.744Z,66.30
2019-03-23T01:37:44.281Z,74.12
2019-03-23T01:40:16.694Z,75.97
2019-03-23T01:43:22.568Z,82.88
2019-03-23T01:45:53.724Z,79.50
2019-03-23T01:48:24.901Z,79.45
2019-03-23T01:50:57.622Z,86.92
2019-03-23T01:53:33.027Z,87.60
2019-03-23T01:56:05.468Z,80.83
2019-03-23T01:58:40.434Z,83.22
2019-03-23T02:01:12.765Z,82.45
2019-03-23T02:03:44.988Z,79.32
2019-03-23T02:06:18.351Z,78.95
2019-03-23T02:08:52.162Z,85.15
2019-03-23T02:11:24.083Z,76.75
2019-03-23T02:13:56.206Z,81.75
2019-03-23T02:16:27.143Z,76.15
2019-03-23T02:18:59.489Z,84.72
2019-03-23T02:21:33.988Z,76.07
2019-03-23T02:24:06.105Z,63.33
2019-03-23T02:26:38.929Z,68.87
2019-03-23T02:29:13.721Z,64.20
2019-03-23T02:31:49.906Z,64.62
2019-03-23T02:34:23.180Z,56.28
2019-03-23T02:36:55.599Z,51.75
2019-03-23T02:39:26.980Z,53.00
2019-03-23T02:41:59.057Z,53.98
2019-03-23T02:44:33.850Z,51.00
2019-03-23T02:47:06.479Z,47.60
2019-03-23T02:49:39.171Z,50.52
2019-03-23T02:52:11.378Z,56.80
2019-03-23T02:54:49.440Z,53.40
2019-03-23T02:57:36.592Z,53.25
2019-03-23T03:00:10.734Z,50.67
2019-03-23T03:02:45.296Z,56.80
2019-03-23T03:05:17.011Z,54.88
2019-03-23T03:07:49.386Z,52.33
2019-03-23T03:10:23.055Z,59.25
2019-03-23T03:12:55.472Z,56.05
2019-03-23T03:15:27.568Z,59.70
2019-03-23T03:18:00.321Z,51.90
2019-03-23T03:20:32.536Z,59.03
2019-03-23T03:23:04.929Z,51.90
2019-03-23T03:25:35.986Z,55.17
2019-03-23T03:28:10.523Z,51.20
2019-03-23T03:30:44.208Z,52.55
2019-03-23T03:33:16.763Z,54.98
2019-03-23T03:35:51.684Z,53.58
2019-03-23T03:38:26.792Z,53.28
2019-03-23T03:43:32.683Z,77.17
2019-03-23T03:46:06.899Z,55.65
2019-03-23T03:48:39.248Z,58.95
2019-03-23T03:51:13.732Z,54.55
2019-03-23T03:53:45.873Z,55.30
2019-03-23T03:56:19.661Z,53.95
2019-03-23T03:58:51.925Z,52.23
2019-03-23T04:01:24.745Z,52.73
2019-03-23T04:03:58.363Z,54.63
2019-03-23T04:06:32.479Z,53.78
2019-03-23T04:09:03.850Z,52.48
2019-03-23T04:11:37.805Z,51.83
2019-03-23T04:14:10.430Z,61.63
2019-03-23T04:16:43.189Z,54.65
2019-03-23T04:19:15.977Z,52.78
2019-03-23T04:21:49.953Z,56.25
2019-03-23T04:24:22.419Z,56.15
2019-03-23T04:26:54.881Z,65.52
2019-03-23T04:29:28.953Z,67.97
2019-03-23T04:32:04.364Z,70.65
2019-03-23T04:34:36.478Z,70.75
2019-03-23T04:37:10.620Z,74.22
2019-03-23T04:39:41.883Z,69.30
2019-03-23T04:42:14.653Z,67.20
2019-03-23T04:44:49.495Z,72.60
2019-03-23T04:47:21.839Z,68.87
2019-03-23T04:49:53.955Z,67.32
2019-03-23T04:52:25.324Z,66.97
2019-03-23T04:54:57.433Z,68.47
2019-03-23T04:57:29.538Z,67.25
2019-03-23T05:00:03.490Z,64.25
2019-03-23T05:02:40.830Z,65.05
2019-03-23T05:05:13.283Z,64.85
2019-03-23T05:07:45.756Z,65.35
2019-03-23T05:10:18.559Z,63.68
2019-03-23T05:12:53.263Z,64.75
2019-03-23T05:15:25.547Z,68.12
2019-03-23T05:18:01.351Z,66.42
2019-03-23T05:20:34.720Z,60.43
2019-03-23T05:23:07.776Z,58.17
2019-03-23T05:25:40.417Z,60.95
2019-03-23T05:28:14.688Z,58.58
2019-03-23T05:30:56.846Z,61.20
2019-03-23T05:33:30.923Z,59.45
2019-03-23T05:36:03.343Z,58.83
2019-03-23T05:38:44.326Z,60.75
2019-03-23T05:41:14.038Z,61.58
2019-03-23T05:46:17.435Z,58.70
2019-03-23T05:48:49.807Z,58.78
2019-03-23T05:51:22.557Z,60.38
2019-03-23T05:53:54.712Z,62.62
2019-03-23T05:56:30.256Z,61.02
2019-03-23T05:59:04.553Z,61.37
2019-03-23T06:01:37.464Z,61.68
2019-03-23T06:04:09.556Z,60.83
2019-03-23T06:06:48.007Z,62.40
2019-03-23T06:09:21.991Z,62.78
2019-03-23T06:11:53.464Z,63.27
2019-03-23T06:14:25.520Z,63.02
2019-03-23T06:16:57.916Z,63.75
2019-03-23T06:19:33.091Z,66.30
2019-03-23T06:22:11.410Z,64.70
2019-03-23T06:24:45.565Z,65.57
2019-03-23T06:27:17.674Z,62.62
2019-03-23T06:29:52.731Z,63.87
2019-03-23T06:32:25.168Z,62.20
2019-03-23T06:34:57.832Z,60.40
2019-03-23T06:37:32.165Z,61.77
2019-03-23T06:40:07.285Z,64.30
2019-03-23T06:42:40.456Z,56.48
2019-03-23T06:45:12.893Z,64.95
2019-03-23T06:47:45.401Z,64.35
2019-03-23T06:50:18.683Z,66.55
2019-03-23T06:52:51.355Z,64.07
2019-03-23T06:55:25.278Z,65.57
2019-03-23T06:58:00.340Z,64.82
2019-03-23T07:00:32.693Z,63.90
2019-03-23T07:03:06.754Z,63.85
2019-03-23T07:08:32.219Z,60.55
2019-03-23T07:11:02.770Z,61.58
2019-03-23T07:13:36.476Z,62.10
2019-03-23T07:16:10.760Z,61.42
2019-03-23T07:18:43.312Z,63.17
2019-03-23T07:21:15.631Z,62.43
2019-03-23T07:23:47.928Z,61.30
2019-03-23T07:26:19.379Z,61.13
2019-03-23T07:28:51.834Z,59.05
2019-03-23T07:31:25.731Z,61.92
2019-03-23T07:33:58.370Z,60.63
2019-03-23T07:36:30.841Z,60.33
2019-03-23T07:39:03.022Z,61.28
2019-03-23T07:41:36.935Z,63.65
2019-03-23T07:44:09.396Z,61.13
2019-03-23T07:46:43.103Z,59.98
2019-03-23T07:49:17.764Z,56.77
2019-03-23T07:54:21.699Z,56.95
2019-03-23T07:56:53.681Z,55.63
2019-03-23T07:59:25.894Z,52.98
2019-03-23T08:01:57.999Z,56.63
2019-03-23T08:04:29.676Z,54.00
2019-03-23T08:07:01.796Z,55.90
2019-03-23T08:09:37.854Z,54.27
2019-03-23T08:12:20.193Z,50.35
2019-03-23T08:14:54.367Z,48.58
2019-03-23T08:17:28.279Z,48.78
2019-03-23T08:20:02.355Z,50.00
2019-03-23T08:22:34.806Z,46.42
2019-03-23T08:25:08.103Z,46.85
2019-03-23T08:27:41.668Z,47.27
2019-03-23T08:30:15.665Z,47.75
2019-03-23T08:32:48.286Z,47.80
2019-03-23T08:35:20.377Z,48.33
2019-03-23T08:37:51.525Z,45.63
2019-03-23T08:40:23.877Z,46.00
2019-03-23T08:42:56.073Z,46.10
2019-03-23T08:45:28.904Z,44.40
2019-03-23T08:48:03.852Z,44.25
2019-03-23T08:50:35.252Z,44.15
2019-03-23T08:53:07.343Z,46.28
2019-03-23T08:55:41.153Z,45.17
2019-03-23T08:58:13.511Z,47.43
2019-03-23T09:00:47.288Z,42.83
2019-03-23T09:03:21.515Z,43.10
2019-03-23T09:05:56.712Z,41.75
2019-03-23T09:08:40.732Z,42.65
2019-03-23T09:11:20.442Z,41.28
2019-03-23T09:13:45.639Z,41.42
2019-03-23T09:16:17.839Z,39.53
2019-03-23T09:18:49.024Z,39.08
2019-03-23T09:21:23.538Z,43.60
2019-03-23T09:23:54.795Z,44.63
2019-03-23T09:26:27.195Z,43.10
2019-03-23T09:29:01.260Z,42.93
2019-03-23T09:31:32.500Z,45.65
2019-03-23T09:34:04.689Z,44.45
2019-03-23T09:36:36.871Z,47.70
2019-03-23T09:39:13.116Z,43.87
2019-03-23T09:41:45.520Z,43.95
2019-03-23T09:44:17.708Z,44.63
2019-03-23T09:46:50.008Z,42.65
2019-03-23T09:49:22.113Z,42.58
2019-03-23T09:51:56.462Z,42.13
2019-03-23T09:54:28.804Z,43.17
2019-03-23T09:57:01.662Z,41.98
2019-03-23T09:59:34.163Z,42.83
2019-03-23T10:02:06.688Z,44.77
2019-03-23T10:04:39.036Z,41.98
2019-03-23T10:07:11.539Z,41.92
2019-03-23T10:09:43.529Z,42.27
2019-03-23T10:12:15.771Z,43.08
2019-03-23T10:14:52.742Z,42.95
2019-03-23T10:17:26.510Z,41.58
2019-03-23T10:19:57.950Z,44.03
2019-03-23T10:22:31.492Z,44.93
2019-03-23T10:25:02.796Z,47.83
2019-03-23T10:27:37.564Z,43.45
2019-03-23T10:30:11.837Z,43.95
2019-03-23T10:32:43.982Z,44.38
2019-03-23T10:35:18.713Z,43.75
2019-03-23T10:37:51.086Z,49.42
2019-03-23T10:40:31.700Z,51.45
2019-03-23T10:42:54.818Z,43.63
2019-03-23T10:45:27.251Z,47.50
2019-03-23T10:47:59.689Z,44.25
2019-03-23T10:50:32.079Z,52.67
2019-03-23T10:53:03.533Z,43.63
2019-03-23T10:55:34.783Z,48.17
2019-03-23T10:58:07.099Z,46.35
2019-03-23T11:00:38.598Z,48.40
2019-03-23T11:03:11.075Z,54.20
2019-03-23T11:05:46.353Z,45.88
2019-03-23T11:08:20.703Z,46.15
2019-03-23T11:10:52.768Z,48.17
2019-03-23T11:13:26.335Z,48.78
2019-03-23T11:16:00.750Z,46.08
2019-03-23T11:18:34.724Z,53.00
2019-03-23T11:21:09.419Z,53.30
2019-03-23T11:23:45.478Z,51.70
2019-03-23T11:26:17.394Z,56.63
2019-03-23T11:28:48.746Z,57.95
2019-03-23T11:31:21.301Z,64.32
2019-03-23T11:33:53.393Z,60.35
2019-03-23T11:36:25.877Z,53.90
2019-03-23T11:38:59.775Z,57.00
2019-03-23T11:41:34.622Z,55.70
2019-03-23T11:46:37.092Z,54.58
2019-03-23T11:49:08.429Z,57.78
2019-03-23T11:51:43.091Z,56.00
2019-03-23T11:54:15.471Z,61.75
2019-03-23T11:56:49.579Z,57.00
2019-03-23T11:59:22.498Z,56.17
2019-03-23T12:01:58.446Z,61.95
2019-03-23T12:04:33.034Z,55.15
2019-03-23T12:07:04.215Z,53.70
2019-03-23T12:09:36.910Z,58.60
2019-03-23T12:12:09.009Z,56.50
2019-03-23T12:14:43.067Z,64.42
2019-03-23T12:17:18.785Z,53.98
2019-03-23T12:19:51.716Z,54.25
2019-03-23T12:22:24.086Z,76.20
2019-03-23T12:24:58.355Z,70.83
2019-03-23T12:27:30.632Z,58.60
2019-03-23T12:30:07.043Z,63.08
2019-03-23T12:32:36.899Z,67.25
2019-03-23T12:35:10.764Z,61.40
2019-03-23T12:37:46.296Z,62.30
2019-03-23T12:40:18.471Z,67.67
2019-03-23T12:42:50.020Z,60.35
2019-03-23T12:45:22.478Z,67.67
2019-03-23T12:47:54.783Z,58.48
2019-03-23T12:50:28.944Z,67.17
2019-03-23T12:53:02.148Z,77.40
2019-03-23T12:55:34.594Z,69.45
2019-03-23T12:58:06.971Z,64.87
2019-03-23T13:00:39.186Z,57.62
2019-03-23T13:03:10.326Z,56.77
2019-03-23T13:05:44.660Z,57.95
2019-03-23T13:08:16.879Z,60.92
2019-03-23T13:10:51.079Z,58.78
2019-03-23T13:13:28.283Z,61.57
2019-03-23T13:15:59.492Z,58.80
2019-03-23T13:18:33.329Z,56.63
2019-03-23T13:21:05.975Z,59.13
2019-03-23T13:23:40.795Z,60.52
2019-03-23T13:26:12.027Z,63.13
2019-03-23T13:28:44.428Z,60.30
2019-03-23T13:31:18.542Z,61.00
2019-03-23T13:33:50.963Z,61.53
2019-03-23T13:36:23.214Z,61.15
2019-03-23T13:38:57.317Z,61.33
2019-03-23T13:41:29.741Z,64.82
2019-03-23T13:44:03.847Z,65.65
2019-03-23T13:46:36.308Z,67.37
2019-03-23T13:49:12.686Z,65.67
2019-03-23T13:51:45.519Z,69.67
2019-03-23T13:54:17.850Z,70.67
2019-03-23T13:56:50.393Z,72.78
2019-03-23T13:59:22.539Z,70.70
2019-03-23T14:01:56.914Z,71.28
2019-03-23T14:04:29.162Z,70.55
2019-03-23T14:07:01.579Z,68.95
2019-03-23T14:09:33.581Z,70.20
2019-03-23T14:12:11.035Z,68.07
2019-03-23T14:14:43.270Z,70.40
2019-03-23T14:17:15.453Z,66.87
2019-03-23T14:19:48.455Z,68.52
2019-03-23T14:22:19.688Z,68.90
2019-03-23T14:24:56.175Z,68.00
2019-03-23T14:27:30.438Z,73.30
2019-03-23T14:30:01.327Z,74.20
2019-03-23T14:32:34.047Z,67.72
2019-03-23T14:35:06.897Z,63.55
2019-03-23T14:37:39.067Z,61.65
2019-03-23T14:40:13.155Z,62.50
2019-03-23T14:42:44.474Z,61.15
2019-03-23T14:45:19.107Z,62.25
2019-03-23T14:47:50.260Z,62.88
2019-03-23T14:50:21.807Z,60.85
2019-03-23T14:52:52.918Z,59.67
2019-03-23T14:55:24.970Z,63.10
2019-03-23T14:57:57.431Z,63.55
2019-03-23T15:00:32.172Z,60.50
2019-03-23T15:03:10.562Z,60.15
2019-03-23T15:05:42.887Z,59.93
2019-03-23T15:08:17.567Z,57.83
2019-03-23T15:10:51.290Z,59.48
2019-03-23T15:13:23.699Z,58.75
2019-03-23T15:15:56.071Z,58.23
2019-03-23T15:18:30.328Z,59.18
2019-03-23T15:21:01.822Z,59.83
2019-03-23T15:23:33.125Z,55.80
2019-03-23T15:26:07.250Z,59.03
2019-03-23T15:28:41.393Z,61.25
2019-03-23T15:31:13.899Z,59.85
2019-03-23T15:33:46.607Z,57.95
2019-03-23T15:36:18.921Z,57.50
2019-03-23T15:38:51.358Z,60.45
2019-03-23T15:41:25.243Z,58.68
2019-03-23T15:43:57.461Z,69.25
2019-03-23T15:46:49.144Z,68.70
2019-03-23T15:49:23.440Z,68.12
2019-03-23T15:51:55.123Z,79.17
2019-03-23T15:54:30.186Z,79.62
2019-03-23T15:57:03.852Z,75.37
2019-03-23T15:59:36.259Z,82.50
2019-03-23T16:02:07.598Z,78.33
2019-03-23T16:04:39.836Z,83.03
2019-03-23T16:07:10.987Z,77.92
2019-03-23T16:09:45.223Z,72.00
2019-03-23T16:12:17.322Z,78.95
2019-03-23T16:14:54.430Z,69.37
2019-03-23T16:17:26.783Z,73.42
2019-03-23T16:19:58.751Z,69.55
2019-03-23T16:22:32.452Z,80.42
2019-03-23T16:25:04.949Z,76.12
2019-03-23T16:27:36.290Z,67.78
2019-03-23T16:30:13.496Z,80.28
2019-03-23T16:32:45.875Z,72.05
2019-03-23T16:35:18.448Z,70.42
2019-03-23T16:37:50.698Z,70.08
2019-03-23T16:40:23.146Z,64.97
2019-03-23T16:42:54.342Z,67.90
2019-03-23T16:45:26.492Z,62.73
2019-03-23T16:48:00.584Z,59.50
2019-03-23T16:50:33.357Z,69.65
2019-03-23T16:53:05.746Z,62.80
2019-03-23T16:55:37.975Z,67.40
2019-03-23T16:58:16.037Z,70.85
2019-03-23T17:00:42.843Z,61.15
2019-03-23T17:03:14.187Z,59.33
2019-03-23T17:05:47.022Z,51.92
2019-03-23T17:08:18.320Z,59.50
2019-03-23T17:10:52.114Z,67.78
2019-03-23T17:13:23.460Z,62.20
2019-03-23T17:16:14.924Z,55.73
2019-03-23T17:18:47.251Z,51.42
2019-03-23T17:21:19.905Z,53.78
2019-03-23T17:23:52.583Z,52.15
2019-03-23T17:26:26.804Z,55.83
2019-03-23T17:28:59.381Z,57.62
2019-03-23T17:31:31.280Z,53.90
2019-03-23T17:34:03.822Z,51.92
2019-03-23T17:36:36.219Z,52.38
2019-03-23T17:39:09.587Z,52.17
2019-03-23T17:41:44.320Z,50.17
2019-03-23T17:44:16.615Z,45.12
2019-03-23T17:46:50.640Z,45.43
2019-03-23T17:49:22.938Z,49.25
2019-03-23T17:51:55.606Z,45.50
2019-03-23T17:54:28.206Z,49.00
2019-03-23T17:57:00.838Z,49.27
2019-03-23T17:59:32.122Z,47.78
2019-03-23T18:02:04.928Z,56.37
2019-03-23T18:04:37.133Z,51.40
2019-03-23T18:10:12.380Z,45.60
2019-03-23T18:12:53.250Z,46.83
2019-03-23T18:18:24.888Z,47.70
2019-03-23T18:21:07.412Z,48.95
2019-03-23T18:23:40.023Z,53.25
2019-03-23T18:26:13.887Z,49.48
2019-03-23T18:28:44.900Z,50.90
2019-03-23T18:31:16.463Z,47.73
2019-03-23T18:33:50.704Z,49.77
2019-03-23T18:38:58.395Z,49.85
2019-03-23T18:41:29.700Z,54.08
2019-03-23T18:44:00.819Z,49.42
2019-03-23T18:46:33.138Z,50.35
2019-03-23T18:49:05.684Z,51.77
2019-03-23T18:51:39.402Z,47.75
2019-03-23T18:54:13.578Z,47.85
2019-03-23T18:56:45.596Z,49.50
2019-03-23T18:59:18.003Z,49.13
2019-03-23T19:01:50.374Z,50.08
2019-03-23T19:04:23.213Z,46.55
2019-03-23T19:06:54.443Z,50.65
2019-03-23T19:09:26.900Z,51.10
2019-03-23T19:11:59.113Z,48.20
2019-03-23T19:14:30.682Z,50.73
2019-03-23T19:17:02.998Z,49.00
2019-03-23T19:19:35.027Z,49.42
2019-03-23T19:22:06.273Z,48.42
2019-03-23T19:24:37.447Z,47.62
2019-03-23T19:27:09.491Z,48.17
2019-03-23T19:29:40.832Z,48.13
2019-03-23T19:32:13.331Z,48.55
2019-03-23T19:34:45.560Z,49.73
2019-03-23T19:37:17.895Z,53.00
2019-03-23T19:39:51.813Z,51.90
2019-03-23T19:42:23.168Z,52.93
2019-03-23T19:44:55.582Z,51.75
2019-03-23T19:47:29.572Z,51.95
2019-03-23T19:50:03.795Z,51.13
2019-03-23T19:52:36.238Z,51.68
2019-03-23T19:55:10.141Z,51.75
2019-03-23T19:57:44.453Z,56.08
2019-03-23T20:00:16.633Z,57.23
2019-03-23T20:02:53.085Z,55.20
2019-03-23T20:05:25.753Z,53.25
2019-03-23T20:07:58.238Z,53.30
2019-03-23T20:10:30.325Z,51.58
2019-03-23T20:13:03.002Z,54.75
2019-03-23T20:15:37.900Z,56.05
2019-03-23T20:18:09.377Z,52.62
2019-03-23T20:20:40.711Z,51.33
2019-03-23T20:23:12.803Z,52.35
2019-03-23T20:25:44.373Z,52.98
2019-03-23T20:28:15.656Z,55.25
2019-03-23T20:30:48.123Z,56.53
2019-03-23T20:33:21.742Z,52.83
2019-03-23T20:35:53.081Z,52.23
2019-03-23T20:38:27.063Z,53.48
2019-03-23T20:40:59.780Z,57.88
2019-03-23T20:43:31.085Z,53.90
2019-03-23T20:46:02.402Z,54.25
2019-03-23T20:48:36.465Z,55.92
2019-03-23T20:51:10.243Z,54.40
2019-03-23T20:53:41.552Z,57.00
2019-03-23T20:56:12.690Z,53.30
2019-03-23T20:58:47.282Z,52.45
2019-03-23T21:01:18.693Z,55.83
2019-03-23T21:03:50.931Z,53.70
2019-03-23T21:06:23.610Z,53.95
2019-03-23T21:08:55.814Z,55.50
2019-03-23T21:11:27.086Z,53.28
2019-03-23T21:13:58.115Z,52.83
2019-03-23T21:16:30.336Z,56.23
2019-03-23T21:19:02.543Z,53.70
2019-03-23T21:21:34.834Z,55.90
2019-03-23T21:24:06.052Z,54.15
2019-03-23T21:26:37.337Z,53.05
2019-03-23T21:29:08.528Z,55.48
2019-03-23T21:31:39.835Z,54.27
2019-03-23T21:34:12.278Z,51.58
2019-03-23T21:36:46.574Z,52.27
2019-03-23T21:39:19.007Z,53.65
2019-03-23T21:41:51.096Z,50.95
2019-03-23T21:44:30.628Z,55.03
2019-03-23T21:46:54.998Z,52.85
2019-03-23T21:49:27.473Z,54.55
2019-03-23T21:52:01.114Z,56.90
2019-03-23T21:54:35.254Z,55.73
2019-03-23T21:57:07.771Z,54.10
2019-03-23T21:59:39.974Z,56.80
2019-03-23T22:02:11.006Z,54.88
2019-03-23T22:04:42.048Z,56.20
2019-03-23T22:07:16.302Z,53.58
2019-03-23T22:09:47.522Z,51.98
2019-03-23T22:12:19.814Z,54.00
2019-03-23T22:14:51.042Z,52.80
2019-03-23T22:17:23.277Z,54.58
2019-03-23T22:19:55.720Z,55.38
2019-03-23T22:22:28.145Z,55.10
2019-03-23T22:24:59.979Z,59.67
2019-03-23T22:27:32.104Z,54.88
2019-03-23T22:30:04.726Z,53.30
2019-03-23T22:32:35.850Z,54.23
2019-03-23T22:35:08.792Z,54.23
2019-03-23T22:37:40.023Z,54.33
2019-03-23T22:40:12.121Z,51.55
2019-03-23T22:42:43.408Z,54.42
2019-03-23T22:45:15.915Z,53.10
2019-03-23T22:47:48.106Z,53.85
2019-03-23T22:50:20.311Z,54.77
2019-03-23T22:52:52.951Z,51.90
2019-03-23T22:55:25.133Z,52.58
2019-03-23T22:57:57.446Z,51.70
2019-03-23T23:00:29.928Z,51.02
2019-03-23T23:03:01.227Z,55.70
2019-03-23T23:05:35.626Z,52.62
2019-03-23T23:08:13.217Z,52.62
2019-03-23T23:10:45.874Z,178.78
2019-03-23T23:13:17.866Z,201.12
2019-03-23T23:15:50.314Z,105.92
2019-03-23T23:18:22.408Z,68.70
2019-03-23T23:20:54.698Z,51.68
2019-03-23T23:23:27.326Z,52.85
2019-03-23T23:25:58.594Z,52.93
2019-03-23T23:28:31.087Z,54.90
2019-03-23T23:31:02.414Z,52.50
2019-03-23T23:33:36.845Z,57.10
2019-03-23T23:36:08.040Z,65.52
2019-03-23T23:38:40.730Z,61.28
2019-03-23T23:41:14.623Z,55.85
2019-03-23T23:43:47.256Z,55.95
2019-03-23T23:46:19.794Z,55.78
2019-03-23T23:48:52.125Z,58.02
2019-03-23T23:51:23.568Z,57.88
2019-03-23T23:53:55.660Z,55.12
2019-03-23T23:56:27.876Z,76.15
2019-03-23T23:59:01.851Z,151.42
